Arrowhead, Minnesota
Current Conditions -  °F | °C
As of 7:17 AM on Thursday 23 Oct 2014 (Local Time) from KCOQ Reporting Station
Haze Haze  
Wind Chill:   Ceiling: 400
Heat Index:   Visibility: 4mi
Dew Point:   Wind: 8mph
Humidity: 93%   Direction: 200°SSW
Pressure: 29.96"   Gusts: NA
Location:  46.8211°N, 92.6871°W
Report Text: KCOQ 231217Z AUTO 20007KT 4SM BR OVC004 08/07 A2996 RMK AO2
Loading
Personal Weather Stations






























Interactive Weather Map
Tropical Storm Tracking
New forecast layout! Learn more

10-Day Weather Forecast

Advertisements
Track Severe Weather on mobile